sensor_id;sensor_type;location;lat;lon;timestamp;P1;durP1;ratioP1;P2;durP2;ratioP2
18610;SDS011;9435;52.122;5.502;2022-12-15T00:00:22;34.60;;;13.23;;
18610;SDS011;9435;52.122;5.502;2022-12-15T00:03:07;30.80;;;12.40;;
18610;SDS011;9435;52.122;5.502;2022-12-15T00:05:51;29.45;;;11.98;;
18610;SDS011;9435;52.122;5.502;2022-12-15T00:08:36;32.05;;;12.55;;
18610;SDS011;9435;52.122;5.502;2022-12-15T00:11:20;36.72;;;13.40;;
18610;SDS011;9435;52.122;5.502;2022-12-15T00:14:07;36.08;;;13.30;;
18610;SDS011;9435;52.122;5.502;2022-12-15T00:16:51;36.17;;;14.30;;
18610;SDS011;9435;52.122;5.502;2022-12-15T00:19:36;37.92;;;13.00;;
18610;SDS011;9435;52.122;5.502;2022-12-15T00:22:20;35.33;;;13.85;;
18610;SDS011;9435;52.122;5.502;2022-12-15T00:25:05;29.13;;;12.73;;
18610;SDS011;9435;52.122;5.502;2022-12-15T00:27:50;36.72;;;14.15;;
18610;SDS011;9435;52.122;5.502;2022-12-15T00:30:36;34.92;;;14.15;;
18610;SDS011;9435;52.122;5.502;2022-12-15T00:33:20;39.95;;;13.85;;
18610;SDS011;9435;52.122;5.502;2022-12-15T00:36:04;30.30;;;13.20;;
18610;SDS011;9435;52.122;5.502;2022-12-15T00:38:49;31.73;;;13.38;;
18610;SDS011;9435;52.122;5.502;2022-12-15T00:41:17;29.55;;;13.30;;
18610;SDS011;9435;52.122;5.502;2022-12-15T00:43:44;36.40;;;14.13;;
18610;SDS011;9435;52.122;5.502;2022-12-15T00:46:13;28.85;;;12.63;;
18610;SDS011;9435;52.122;5.502;2022-12-15T00:48:57;33.05;;;13.10;;
18610;SDS011;9435;52.122;5.502;2022-12-15T00:51:24;34.63;;;13.90;;
18610;SDS011;9435;52.122;5.502;2022-12-15T00:54:09;30.75;;;12.90;;
18610;SDS011;9435;52.122;5.502;2022-12-15T00:56:54;35.45;;;13.55;;
18610;SDS011;9435;52.122;5.502;2022-12-15T00:59:38;39.22;;;14.25;;
18610;SDS011;9435;52.122;5.502;2022-12-15T01:02:24;35.75;;;14.02;;
18610;SDS011;9435;52.122;5.502;2022-12-15T01:05:08;28.55;;;13.15;;
18610;SDS011;9435;52.122;5.502;2022-12-15T01:07:53;31.40;;;12.93;;
18610;SDS011;9435;52.122;5.502;2022-12-15T01:10:37;30.92;;;12.18;;
18610;SDS011;9435;52.122;5.502;2022-12-15T01:13:22;28.75;;;11.85;;
18610;SDS011;9435;52.122;5.502;2022-12-15T01:16:08;30.00;;;12.27;;
18610;SDS011;9435;52.122;5.502;2022-12-15T01:18:55;31.03;;;13.03;;
18610;SDS011;9435;52.122;5.502;2022-12-15T01:21:39;30.73;;;12.25;;
18610;SDS011;9435;52.122;5.502;2022-12-15T01:24:06;33.45;;;12.50;;
18610;SDS011;9435;52.122;5.502;2022-12-15T01:26:34;34.10;;;13.50;;
18610;SDS011;9435;52.122;5.502;2022-12-15T01:29:01;29.25;;;12.52;;
18610;SDS011;9435;52.122;5.502;2022-12-15T01:31:28;32.25;;;13.13;;
18610;SDS011;9435;52.122;5.502;2022-12-15T01:33:57;31.83;;;12.75;;
18610;SDS011;9435;52.122;5.502;2022-12-15T01:36:24;28.60;;;12.50;;
18610;SDS011;9435;52.122;5.502;2022-12-15T01:38:51;35.53;;;13.30;;
18610;SDS011;9435;52.122;5.502;2022-12-15T01:41:18;31.98;;;13.70;;
18610;SDS011;9435;52.122;5.502;2022-12-15T01:43:44;32.00;;;13.00;;
18610;SDS011;9435;52.122;5.502;2022-12-15T01:46:11;35.63;;;13.90;;
18610;SDS011;9435;52.122;5.502;2022-12-15T01:48:42;31.83;;;13.07;;
18610;SDS011;9435;52.122;5.502;2022-12-15T01:51:15;32.67;;;13.00;;
18610;SDS011;9435;52.122;5.502;2022-12-15T01:53:50;35.78;;;14.02;;
18610;SDS011;9435;52.122;5.502;2022-12-15T01:56:21;36.50;;;13.63;;
18610;SDS011;9435;52.122;5.502;2022-12-15T01:58:50;36.25;;;13.90;;
18610;SDS011;9435;52.122;5.502;2022-12-15T02:01:21;35.00;;;13.40;;
18610;SDS011;9435;52.122;5.502;2022-12-15T02:03:48;35.38;;;14.07;;
18610;SDS011;9435;52.122;5.502;2022-12-15T02:06:17;35.63;;;13.80;;
18610;SDS011;9435;52.122;5.502;2022-12-15T02:08:47;34.03;;;13.60;;
18610;SDS011;9435;52.122;5.502;2022-12-15T02:14:18;36.85;;;13.60;;
18610;SDS011;9435;52.122;5.502;2022-12-15T02:16:56;34.03;;;13.57;;
18610;SDS011;9435;52.122;5.502;2022-12-15T02:19:43;35.17;;;13.55;;
18610;SDS011;9435;52.122;5.502;2022-12-15T02:22:30;35.50;;;14.02;;
18610;SDS011;9435;52.122;5.502;2022-12-15T02:25:09;38.35;;;14.65;;
18610;SDS011;9435;52.122;5.502;2022-12-15T02:27:57;34.85;;;14.00;;
18610;SDS011;9435;52.122;5.502;2022-12-15T02:30:31;36.22;;;14.32;;
18610;SDS011;9435;52.122;5.502;2022-12-15T02:33:07;37.40;;;14.38;;
18610;SDS011;9435;52.122;5.502;2022-12-15T02:35:48;37.60;;;14.27;;
18610;SDS011;9435;52.122;5.502;2022-12-15T02:38:31;38.08;;;14.77;;
18610;SDS011;9435;52.122;5.502;2022-12-15T02:41:00;34.80;;;14.20;;
18610;SDS011;9435;52.122;5.502;2022-12-15T02:43:29;41.58;;;15.10;;
18610;SDS011;9435;52.122;5.502;2022-12-15T02:46:03;36.88;;;14.48;;
18610;SDS011;9435;52.122;5.502;2022-12-15T02:48:43;33.30;;;13.98;;
18610;SDS011;9435;52.122;5.502;2022-12-15T02:51:21;36.70;;;15.30;;
18610;SDS011;9435;52.122;5.502;2022-12-15T02:54:01;37.65;;;14.95;;
18610;SDS011;9435;52.122;5.502;2022-12-15T02:56:49;37.67;;;13.77;;
18610;SDS011;9435;52.122;5.502;2022-12-15T02:59:24;35.08;;;15.07;;
18610;SDS011;9435;52.122;5.502;2022-12-15T03:02:01;36.97;;;14.20;;
18610;SDS011;9435;52.122;5.502;2022-12-15T03:04:31;35.67;;;14.80;;
18610;SDS011;9435;52.122;5.502;2022-12-15T03:07:01;37.00;;;14.43;;
18610;SDS011;9435;52.122;5.502;2022-12-15T03:09:30;38.05;;;14.80;;
18610;SDS011;9435;52.122;5.502;2022-12-15T03:11:57;38.75;;;15.15;;
18610;SDS011;9435;52.122;5.502;2022-12-15T03:14:25;34.35;;;14.48;;
18610;SDS011;9435;52.122;5.502;2022-12-15T03:16:53;37.53;;;14.68;;
18610;SDS011;9435;52.122;5.502;2022-12-15T03:19:21;36.75;;;14.18;;
18610;SDS011;9435;52.122;5.502;2022-12-15T03:21:50;37.28;;;13.65;;
18610;SDS011;9435;52.122;5.502;2022-12-15T03:24:17;35.13;;;14.02;;
18610;SDS011;9435;52.122;5.502;2022-12-15T03:26:44;36.65;;;15.05;;
18610;SDS011;9435;52.122;5.502;2022-12-15T03:29:14;35.13;;;14.20;;
18610;SDS011;9435;52.122;5.502;2022-12-15T03:31:41;38.67;;;14.90;;
18610;SDS011;9435;52.122;5.502;2022-12-15T03:34:08;30.17;;;13.63;;
18610;SDS011;9435;52.122;5.502;2022-12-15T03:36:37;32.30;;;13.68;;
18610;SDS011;9435;52.122;5.502;2022-12-15T03:39:04;37.70;;;14.95;;
18610;SDS011;9435;52.122;5.502;2022-12-15T03:41:31;37.92;;;14.23;;
18610;SDS011;9435;52.122;5.502;2022-12-15T03:43:59;39.22;;;14.68;;
18610;SDS011;9435;52.122;5.502;2022-12-15T03:46:27;36.83;;;14.17;;
18610;SDS011;9435;52.122;5.502;2022-12-15T03:48:55;39.60;;;15.55;;
18610;SDS011;9435;52.122;5.502;2022-12-15T03:51:22;34.15;;;13.75;;
18610;SDS011;9435;52.122;5.502;2022-12-15T03:53:51;40.30;;;15.18;;
18610;SDS011;9435;52.122;5.502;2022-12-15T03:56:18;35.60;;;14.07;;
18610;SDS011;9435;52.122;5.502;2022-12-15T03:58:45;35.15;;;13.70;;
18610;SDS011;9435;52.122;5.502;2022-12-15T04:01:17;36.78;;;14.55;;
18610;SDS011;9435;52.122;5.502;2022-12-15T04:03:48;33.47;;;14.23;;
18610;SDS011;9435;52.122;5.502;2022-12-15T04:06:15;37.83;;;14.88;;
18610;SDS011;9435;52.122;5.502;2022-12-15T04:08:42;36.70;;;13.63;;
18610;SDS011;9435;52.122;5.502;2022-12-15T04:11:11;37.63;;;14.15;;
18610;SDS011;9435;52.122;5.502;2022-12-15T04:13:38;35.40;;;14.57;;
18610;SDS011;9435;52.122;5.502;2022-12-15T04:16:05;37.47;;;14.30;;
18610;SDS011;9435;52.122;5.502;2022-12-15T04:18:33;35.30;;;13.90;;
18610;SDS011;9435;52.122;5.502;2022-12-15T04:21:00;33.38;;;13.95;;
18610;SDS011;9435;52.122;5.502;2022-12-15T04:23:26;35.25;;;14.13;;
18610;SDS011;9435;52.122;5.502;2022-12-15T04:25:53;34.80;;;14.30;;
18610;SDS011;9435;52.122;5.502;2022-12-15T04:28:39;38.88;;;14.20;;
18610;SDS011;9435;52.122;5.502;2022-12-15T04:31:24;36.78;;;15.02;;
18610;SDS011;9435;52.122;5.502;2022-12-15T04:34:12;40.10;;;15.47;;
18610;SDS011;9435;52.122;5.502;2022-12-15T04:36:59;42.00;;;15.43;;
18610;SDS011;9435;52.122;5.502;2022-12-15T04:39:44;35.63;;;15.13;;
18610;SDS011;9435;52.122;5.502;2022-12-15T04:42:32;38.50;;;15.00;;
18610;SDS011;9435;52.122;5.502;2022-12-15T04:45:19;39.95;;;15.23;;
18610;SDS011;9435;52.122;5.502;2022-12-15T04:48:07;38.50;;;14.75;;
18610;SDS011;9435;52.122;5.502;2022-12-15T04:50:52;37.85;;;14.48;;
18610;SDS011;9435;52.122;5.502;2022-12-15T04:53:37;37.40;;;14.80;;
18610;SDS011;9435;52.122;5.502;2022-12-15T04:56:21;36.92;;;15.15;;
18610;SDS011;9435;52.122;5.502;2022-12-15T04:59:06;37.47;;;14.70;;
18610;SDS011;9435;52.122;5.502;2022-12-15T05:01:52;35.33;;;14.60;;
18610;SDS011;9435;52.122;5.502;2022-12-15T05:04:36;36.20;;;14.32;;
18610;SDS011;9435;52.122;5.502;2022-12-15T05:07:20;35.70;;;13.57;;
18610;SDS011;9435;52.122;5.502;2022-12-15T05:10:07;34.25;;;14.57;;
18610;SDS011;9435;52.122;5.502;2022-12-15T05:12:51;38.67;;;14.43;;
18610;SDS011;9435;52.122;5.502;2022-12-15T05:15:36;40.45;;;14.75;;
18610;SDS011;9435;52.122;5.502;2022-12-15T05:18:22;45.13;;;19.55;;
18610;SDS011;9435;52.122;5.502;2022-12-15T05:21:06;44.53;;;17.63;;
18610;SDS011;9435;52.122;5.502;2022-12-15T05:23:50;41.97;;;16.45;;
18610;SDS011;9435;52.122;5.502;2022-12-15T05:26:35;42.38;;;16.35;;
18610;SDS011;9435;52.122;5.502;2022-12-15T05:29:20;38.95;;;15.80;;
18610;SDS011;9435;52.122;5.502;2022-12-15T05:32:05;39.53;;;14.85;;
18610;SDS011;9435;52.122;5.502;2022-12-15T05:34:34;40.90;;;15.50;;
18610;SDS011;9435;52.122;5.502;2022-12-15T05:37:03;39.45;;;15.48;;
18610;SDS011;9435;52.122;5.502;2022-12-15T05:39:31;37.87;;;15.90;;
18610;SDS011;9435;52.122;5.502;2022-12-15T05:41:58;41.47;;;15.57;;
18610;SDS011;9435;52.122;5.502;2022-12-15T05:44:26;42.60;;;16.58;;
18610;SDS011;9435;52.122;5.502;2022-12-15T05:46:54;38.22;;;15.95;;
18610;SDS011;9435;52.122;5.502;2022-12-15T05:49:21;42.72;;;15.80;;
18610;SDS011;9435;52.122;5.502;2022-12-15T05:51:50;36.53;;;14.45;;
18610;SDS011;9435;52.122;5.502;2022-12-15T05:54:18;38.88;;;15.25;;
18610;SDS011;9435;52.122;5.502;2022-12-15T05:56:45;40.63;;;15.30;;
18610;SDS011;9435;52.122;5.502;2022-12-15T05:59:13;41.40;;;15.43;;
18610;SDS011;9435;52.122;5.502;2022-12-15T06:01:41;35.03;;;14.30;;
18610;SDS011;9435;52.122;5.502;2022-12-15T06:04:08;38.42;;;15.23;;
18610;SDS011;9435;52.122;5.502;2022-12-15T06:06:37;36.58;;;14.32;;
18610;SDS011;9435;52.122;5.502;2022-12-15T06:09:05;39.55;;;14.82;;
18610;SDS011;9435;52.122;5.502;2022-12-15T06:11:33;40.28;;;15.27;;
18610;SDS011;9435;52.122;5.502;2022-12-15T06:14:01;35.92;;;14.77;;
18610;SDS011;9435;52.122;5.502;2022-12-15T06:16:28;37.47;;;15.57;;
18610;SDS011;9435;52.122;5.502;2022-12-15T06:18:56;38.88;;;15.38;;
18610;SDS011;9435;52.122;5.502;2022-12-15T06:21:25;41.38;;;15.70;;
18610;SDS011;9435;52.122;5.502;2022-12-15T06:23:54;38.60;;;15.13;;
18610;SDS011;9435;52.122;5.502;2022-12-15T06:26:23;40.20;;;14.95;;
18610;SDS011;9435;52.122;5.502;2022-12-15T06:28:53;37.22;;;15.20;;
18610;SDS011;9435;52.122;5.502;2022-12-15T06:31:21;38.10;;;14.65;;
18610;SDS011;9435;52.122;5.502;2022-12-15T06:33:49;50.63;;;22.17;;
18610;SDS011;9435;52.122;5.502;2022-12-15T06:36:16;43.22;;;16.58;;
18610;SDS011;9435;52.122;5.502;2022-12-15T06:38:44;38.95;;;15.27;;
18610;SDS011;9435;52.122;5.502;2022-12-15T06:41:12;34.92;;;14.35;;
18610;SDS011;9435;52.122;5.502;2022-12-15T06:43:41;41.35;;;15.48;;
18610;SDS011;9435;52.122;5.502;2022-12-15T06:46:09;38.15;;;15.27;;
18610;SDS011;9435;52.122;5.502;2022-12-15T06:48:36;38.60;;;15.23;;
18610;SDS011;9435;52.122;5.502;2022-12-15T06:51:04;37.70;;;14.43;;
18610;SDS011;9435;52.122;5.502;2022-12-15T06:53:35;40.25;;;14.80;;
18610;SDS011;9435;52.122;5.502;2022-12-15T06:56:06;43.28;;;15.70;;
18610;SDS011;9435;52.122;5.502;2022-12-15T06:58:39;37.15;;;15.07;;
18610;SDS011;9435;52.122;5.502;2022-12-15T07:01:10;39.70;;;15.90;;
18610;SDS011;9435;52.122;5.502;2022-12-15T07:03:38;45.30;;;16.65;;
18610;SDS011;9435;52.122;5.502;2022-12-15T07:06:06;41.97;;;16.10;;
18610;SDS011;9435;52.122;5.502;2022-12-15T07:08:35;41.03;;;15.18;;
18610;SDS011;9435;52.122;5.502;2022-12-15T07:11:03;38.38;;;15.18;;
18610;SDS011;9435;52.122;5.502;2022-12-15T07:13:32;37.03;;;14.77;;
18610;SDS011;9435;52.122;5.502;2022-12-15T07:16:03;41.58;;;15.05;;
18610;SDS011;9435;52.122;5.502;2022-12-15T07:18:33;41.03;;;15.48;;
18610;SDS011;9435;52.122;5.502;2022-12-15T07:21:01;36.00;;;14.90;;
18610;SDS011;9435;52.122;5.502;2022-12-15T07:23:30;39.50;;;14.88;;
18610;SDS011;9435;52.122;5.502;2022-12-15T07:26:01;48.13;;;16.10;;
18610;SDS011;9435;52.122;5.502;2022-12-15T07:28:29;38.93;;;16.20;;
18610;SDS011;9435;52.122;5.502;2022-12-15T07:31:00;48.00;;;16.27;;
18610;SDS011;9435;52.122;5.502;2022-12-15T07:33:30;40.23;;;16.00;;
18610;SDS011;9435;52.122;5.502;2022-12-15T07:35:58;47.97;;;16.55;;
18610;SDS011;9435;52.122;5.502;2022-12-15T07:38:27;42.67;;;16.75;;
18610;SDS011;9435;52.122;5.502;2022-12-15T07:40:58;45.58;;;16.27;;
18610;SDS011;9435;52.122;5.502;2022-12-15T07:43:27;42.42;;;15.63;;
18610;SDS011;9435;52.122;5.502;2022-12-15T07:45:56;42.92;;;16.67;;
18610;SDS011;9435;52.122;5.502;2022-12-15T07:48:25;41.75;;;16.05;;
18610;SDS011;9435;52.122;5.502;2022-12-15T07:50:53;53.10;;;19.67;;
18610;SDS011;9435;52.122;5.502;2022-12-15T07:53:23;48.70;;;18.20;;
18610;SDS011;9435;52.122;5.502;2022-12-15T07:55:55;57.42;;;19.50;;
18610;SDS011;9435;52.122;5.502;2022-12-15T07:58:23;45.05;;;17.48;;
18610;SDS011;9435;52.122;5.502;2022-12-15T08:00:50;54.28;;;19.30;;
18610;SDS011;9435;52.122;5.502;2022-12-15T08:03:17;56.08;;;19.48;;
18610;SDS011;9435;52.122;5.502;2022-12-15T08:05:46;57.33;;;21.05;;
18610;SDS011;9435;52.122;5.502;2022-12-15T08:08:13;56.77;;;22.17;;
18610;SDS011;9435;52.122;5.502;2022-12-15T08:10:42;50.30;;;19.07;;
18610;SDS011;9435;52.122;5.502;2022-12-15T08:13:10;44.38;;;17.33;;
18610;SDS011;9435;52.122;5.502;2022-12-15T08:15:38;48.55;;;17.83;;
18610;SDS011;9435;52.122;5.502;2022-12-15T08:18:05;48.40;;;18.27;;
18610;SDS011;9435;52.122;5.502;2022-12-15T08:20:33;44.27;;;18.23;;
18610;SDS011;9435;52.122;5.502;2022-12-15T08:23:02;51.35;;;19.13;;
18610;SDS011;9435;52.122;5.502;2022-12-15T08:25:29;52.30;;;19.27;;
18610;SDS011;9435;52.122;5.502;2022-12-15T08:27:57;54.97;;;19.73;;
18610;SDS011;9435;52.122;5.502;2022-12-15T08:30:24;52.57;;;20.23;;
18610;SDS011;9435;52.122;5.502;2022-12-15T08:32:51;56.45;;;20.85;;
18610;SDS011;9435;52.122;5.502;2022-12-15T08:35:18;51.33;;;21.30;;
18610;SDS011;9435;52.122;5.502;2022-12-15T08:37:45;56.70;;;21.60;;
18610;SDS011;9435;52.122;5.502;2022-12-15T08:40:14;59.33;;;22.35;;
18610;SDS011;9435;52.122;5.502;2022-12-15T08:42:41;67.60;;;23.02;;
18610;SDS011;9435;52.122;5.502;2022-12-15T08:45:08;59.47;;;23.40;;
18610;SDS011;9435;52.122;5.502;2022-12-15T08:47:36;62.15;;;23.98;;
18610;SDS011;9435;52.122;5.502;2022-12-15T08:50:04;62.08;;;23.83;;
18610;SDS011;9435;52.122;5.502;2022-12-15T08:52:32;64.28;;;24.45;;
18610;SDS011;9435;52.122;5.502;2022-12-15T08:54:59;61.22;;;23.92;;
18610;SDS011;9435;52.122;5.502;2022-12-15T08:57:28;62.25;;;24.10;;
18610;SDS011;9435;52.122;5.502;2022-12-15T08:59:55;67.40;;;24.08;;
18610;SDS011;9435;52.122;5.502;2022-12-15T09:02:22;62.42;;;24.38;;
18610;SDS011;9435;52.122;5.502;2022-12-15T09:04:49;63.55;;;24.92;;
18610;SDS011;9435;52.122;5.502;2022-12-15T09:07:16;67.28;;;24.88;;
18610;SDS011;9435;52.122;5.502;2022-12-15T09:09:43;66.70;;;26.05;;
18610;SDS011;9435;52.122;5.502;2022-12-15T09:12:11;73.38;;;27.15;;
18610;SDS011;9435;52.122;5.502;2022-12-15T09:14:40;69.15;;;26.83;;
18610;SDS011;9435;52.122;5.502;2022-12-15T09:17:07;71.18;;;27.83;;
18610;SDS011;9435;52.122;5.502;2022-12-15T09:19:34;75.85;;;27.58;;
18610;SDS011;9435;52.122;5.502;2022-12-15T09:22:01;74.00;;;30.45;;
18610;SDS011;9435;52.122;5.502;2022-12-15T09:24:29;80.07;;;28.85;;
18610;SDS011;9435;52.122;5.502;2022-12-15T09:26:56;79.05;;;29.80;;
18610;SDS011;9435;52.122;5.502;2022-12-15T09:29:23;82.22;;;31.08;;
18610;SDS011;9435;52.122;5.502;2022-12-15T09:31:52;84.88;;;31.58;;
18610;SDS011;9435;52.122;5.502;2022-12-15T09:34:19;84.85;;;32.05;;
18610;SDS011;9435;52.122;5.502;2022-12-15T09:36:46;89.93;;;32.35;;
18610;SDS011;9435;52.122;5.502;2022-12-15T09:39:13;82.75;;;31.50;;
18610;SDS011;9435;52.122;5.502;2022-12-15T09:41:41;79.18;;;31.90;;
18610;SDS011;9435;52.122;5.502;2022-12-15T09:44:18;86.25;;;32.88;;
18610;SDS011;9435;52.122;5.502;2022-12-15T09:46:53;83.13;;;33.05;;
18610;SDS011;9435;52.122;5.502;2022-12-15T09:49:35;84.53;;;34.72;;
18610;SDS011;9435;52.122;5.502;2022-12-15T09:52:12;102.95;;;35.47;;
18610;SDS011;9435;52.122;5.502;2022-12-15T09:54:42;96.18;;;35.78;;
18610;SDS011;9435;52.122;5.502;2022-12-15T09:57:15;92.85;;;34.72;;
18610;SDS011;9435;52.122;5.502;2022-12-15T10:00:04;97.53;;;36.83;;
18610;SDS011;9435;52.122;5.502;2022-12-15T10:05:41;89.38;;;36.63;;
18610;SDS011;9435;52.122;5.502;2022-12-15T10:08:18;93.75;;;36.58;;
18610;SDS011;9435;52.122;5.502;2022-12-15T10:10:48;95.18;;;37.13;;
18610;SDS011;9435;52.122;5.502;2022-12-15T10:13:20;94.22;;;36.85;;
18610;SDS011;9435;52.122;5.502;2022-12-15T10:15:52;95.35;;;36.95;;
18610;SDS011;9435;52.122;5.502;2022-12-15T10:18:27;94.32;;;36.63;;
18610;SDS011;9435;52.122;5.502;2022-12-15T10:20:58;91.38;;;36.08;;
18610;SDS011;9435;52.122;5.502;2022-12-15T10:23:27;95.10;;;36.00;;
18610;SDS011;9435;52.122;5.502;2022-12-15T10:25:56;81.75;;;33.97;;
18610;SDS011;9435;52.122;5.502;2022-12-15T10:28:34;80.70;;;32.80;;
18610;SDS011;9435;52.122;5.502;2022-12-15T10:31:18;80.55;;;31.85;;
18610;SDS011;9435;52.122;5.502;2022-12-15T10:33:55;80.60;;;33.67;;
18610;SDS011;9435;52.122;5.502;2022-12-15T10:36:25;79.97;;;33.35;;
18610;SDS011;9435;52.122;5.502;2022-12-15T10:38:53;80.78;;;33.70;;
18610;SDS011;9435;52.122;5.502;2022-12-15T10:41:20;88.18;;;36.58;;
18610;SDS011;9435;52.122;5.502;2022-12-15T10:43:50;86.90;;;36.40;;
18610;SDS011;9435;52.122;5.502;2022-12-15T10:46:19;87.72;;;35.63;;
18610;SDS011;9435;52.122;5.502;2022-12-15T10:48:48;87.25;;;35.90;;
18610;SDS011;9435;52.122;5.502;2022-12-15T10:51:19;89.80;;;35.25;;
18610;SDS011;9435;52.122;5.502;2022-12-15T10:53:50;80.18;;;33.67;;
18610;SDS011;9435;52.122;5.502;2022-12-15T10:56:20;82.70;;;34.28;;
18610;SDS011;9435;52.122;5.502;2022-12-15T10:58:50;85.65;;;34.83;;
18610;SDS011;9435;52.122;5.502;2022-12-15T11:01:18;80.95;;;34.92;;
18610;SDS011;9435;52.122;5.502;2022-12-15T11:03:48;79.68;;;34.70;;
18610;SDS011;9435;52.122;5.502;2022-12-15T11:06:19;86.75;;;35.90;;
18610;SDS011;9435;52.122;5.502;2022-12-15T11:08:48;87.13;;;37.17;;
18610;SDS011;9435;52.122;5.502;2022-12-15T11:11:24;78.88;;;34.90;;
18610;SDS011;9435;52.122;5.502;2022-12-15T11:14:11;78.15;;;34.40;;
18610;SDS011;9435;52.122;5.502;2022-12-15T11:16:42;81.72;;;34.22;;
18610;SDS011;9435;52.122;5.502;2022-12-15T11:19:15;76.60;;;33.08;;
18610;SDS011;9435;52.122;5.502;2022-12-15T11:21:54;71.55;;;31.95;;
18610;SDS011;9435;52.122;5.502;2022-12-15T11:24:27;68.95;;;30.50;;
18610;SDS011;9435;52.122;5.502;2022-12-15T11:27:01;68.25;;;29.85;;
18610;SDS011;9435;52.122;5.502;2022-12-15T11:29:39;67.47;;;30.83;;
18610;SDS011;9435;52.122;5.502;2022-12-15T11:32:17;67.60;;;29.75;;
18610;SDS011;9435;52.122;5.502;2022-12-15T11:34:49;69.20;;;30.83;;
18610;SDS011;9435;52.122;5.502;2022-12-15T11:37:23;70.55;;;31.35;;
18610;SDS011;9435;52.122;5.502;2022-12-15T11:40:05;64.63;;;30.48;;
18610;SDS011;9435;52.122;5.502;2022-12-15T11:42:53;66.30;;;30.33;;
18610;SDS011;9435;52.122;5.502;2022-12-15T11:45:28;62.08;;;29.02;;
18610;SDS011;9435;52.122;5.502;2022-12-15T11:48:09;66.28;;;30.10;;
18610;SDS011;9435;52.122;5.502;2022-12-15T11:50:40;63.03;;;29.45;;
18610;SDS011;9435;52.122;5.502;2022-12-15T11:56:18;64.22;;;29.15;;
18610;SDS011;9435;52.122;5.502;2022-12-15T11:58:55;66.25;;;28.27;;
18610;SDS011;9435;52.122;5.502;2022-12-15T12:01:52;65.57;;;28.83;;
18610;SDS011;9435;52.122;5.502;2022-12-15T12:04:45;65.30;;;29.17;;
18610;SDS011;9435;52.122;5.502;2022-12-15T12:07:26;60.00;;;27.98;;
18610;SDS011;9435;52.122;5.502;2022-12-15T12:10:09;62.28;;;28.38;;
18610;SDS011;9435;52.122;5.502;2022-12-15T12:12:48;57.50;;;27.77;;
18610;SDS011;9435;52.122;5.502;2022-12-15T12:15:22;56.28;;;27.70;;
18610;SDS011;9435;52.122;5.502;2022-12-15T12:17:57;64.45;;;28.25;;
18610;SDS011;9435;52.122;5.502;2022-12-15T12:20:33;60.40;;;27.15;;
18610;SDS011;9435;52.122;5.502;2022-12-15T12:23:08;56.80;;;27.88;;
18610;SDS011;9435;52.122;5.502;2022-12-15T12:25:44;58.45;;;27.90;;
18610;SDS011;9435;52.122;5.502;2022-12-15T12:28:20;57.25;;;27.83;;
18610;SDS011;9435;52.122;5.502;2022-12-15T12:30:52;58.55;;;27.88;;
18610;SDS011;9435;52.122;5.502;2022-12-15T12:33:26;60.25;;;28.80;;
18610;SDS011;9435;52.122;5.502;2022-12-15T12:35:59;61.95;;;28.63;;
18610;SDS011;9435;52.122;5.502;2022-12-15T12:38:32;61.80;;;29.55;;
18610;SDS011;9435;52.122;5.502;2022-12-15T12:41:05;61.22;;;27.88;;
18610;SDS011;9435;52.122;5.502;2022-12-15T12:43:38;59.35;;;28.77;;
18610;SDS011;9435;52.122;5.502;2022-12-15T12:46:11;58.40;;;28.38;;
18610;SDS011;9435;52.122;5.502;2022-12-15T12:48:43;58.30;;;27.38;;
18610;SDS011;9435;52.122;5.502;2022-12-15T12:51:21;60.65;;;28.05;;
18610;SDS011;9435;52.122;5.502;2022-12-15T12:53:50;59.20;;;27.48;;
18610;SDS011;9435;52.122;5.502;2022-12-15T12:56:36;56.45;;;26.33;;
18610;SDS011;9435;52.122;5.502;2022-12-15T13:02:38;59.17;;;27.20;;
18610;SDS011;9435;52.122;5.502;2022-12-15T13:05:22;52.15;;;25.75;;
18610;SDS011;9435;52.122;5.502;2022-12-15T13:07:54;59.78;;;27.33;;
18610;SDS011;9435;52.122;5.502;2022-12-15T13:10:23;53.28;;;26.55;;
18610;SDS011;9435;52.122;5.502;2022-12-15T13:12:53;54.22;;;26.58;;
18610;SDS011;9435;52.122;5.502;2022-12-15T13:15:34;54.22;;;27.05;;
18610;SDS011;9435;52.122;5.502;2022-12-15T13:18:10;56.20;;;26.92;;
18610;SDS011;9435;52.122;5.502;2022-12-15T13:20:40;54.97;;;27.63;;
18610;SDS011;9435;52.122;5.502;2022-12-15T13:26:11;55.90;;;27.35;;
18610;SDS011;9435;52.122;5.502;2022-12-15T13:28:42;57.15;;;27.02;;
18610;SDS011;9435;52.122;5.502;2022-12-15T13:31:11;57.03;;;26.77;;
18610;SDS011;9435;52.122;5.502;2022-12-15T13:34:00;59.75;;;27.05;;
18610;SDS011;9435;52.122;5.502;2022-12-15T13:36:50;56.25;;;27.58;;
18610;SDS011;9435;52.122;5.502;2022-12-15T13:39:32;54.92;;;26.17;;
18610;SDS011;9435;52.122;5.502;2022-12-15T13:42:23;51.03;;;25.67;;
18610;SDS011;9435;52.122;5.502;2022-12-15T13:48:20;55.85;;;26.25;;
18610;SDS011;9435;52.122;5.502;2022-12-15T13:50:55;54.03;;;25.88;;
18610;SDS011;9435;52.122;5.502;2022-12-15T13:53:28;53.65;;;25.65;;
18610;SDS011;9435;52.122;5.502;2022-12-15T13:56:04;54.95;;;26.38;;
18610;SDS011;9435;52.122;5.502;2022-12-15T13:58:44;55.45;;;26.48;;
18610;SDS011;9435;52.122;5.502;2022-12-15T14:01:19;56.72;;;26.60;;
18610;SDS011;9435;52.122;5.502;2022-12-15T14:04:04;55.08;;;26.98;;
18610;SDS011;9435;52.122;5.502;2022-12-15T14:06:37;60.22;;;28.95;;
18610;SDS011;9435;52.122;5.502;2022-12-15T14:09:10;60.95;;;30.00;;
18610;SDS011;9435;52.122;5.502;2022-12-15T14:11:40;62.30;;;28.48;;
18610;SDS011;9435;52.122;5.502;2022-12-15T14:14:15;61.75;;;30.85;;
18610;SDS011;9435;52.122;5.502;2022-12-15T14:16:54;57.22;;;29.45;;
18610;SDS011;9435;52.122;5.502;2022-12-15T14:19:26;54.63;;;28.50;;
18610;SDS011;9435;52.122;5.502;2022-12-15T14:22:02;59.97;;;29.75;;
18610;SDS011;9435;52.122;5.502;2022-12-15T14:24:30;61.17;;;28.85;;
18610;SDS011;9435;52.122;5.502;2022-12-15T14:26:58;61.38;;;29.80;;
18610;SDS011;9435;52.122;5.502;2022-12-15T14:29:25;58.78;;;29.83;;
18610;SDS011;9435;52.122;5.502;2022-12-15T14:31:53;62.45;;;30.25;;
18610;SDS011;9435;52.122;5.502;2022-12-15T14:34:23;64.45;;;31.95;;
18610;SDS011;9435;52.122;5.502;2022-12-15T14:36:58;63.97;;;32.22;;
18610;SDS011;9435;52.122;5.502;2022-12-15T14:39:29;62.15;;;31.50;;
18610;SDS011;9435;52.122;5.502;2022-12-15T14:42:02;67.65;;;30.88;;
18610;SDS011;9435;52.122;5.502;2022-12-15T14:44:32;68.03;;;32.33;;
18610;SDS011;9435;52.122;5.502;2022-12-15T14:47:01;58.97;;;31.25;;
18610;SDS011;9435;52.122;5.502;2022-12-15T14:49:35;61.63;;;31.20;;
18610;SDS011;9435;52.122;5.502;2022-12-15T14:52:06;62.67;;;31.98;;
18610;SDS011;9435;52.122;5.502;2022-12-15T14:54:48;68.15;;;33.17;;
18610;SDS011;9435;52.122;5.502;2022-12-15T14:57:20;66.22;;;32.55;;
18610;SDS011;9435;52.122;5.502;2022-12-15T14:59:48;62.40;;;32.05;;
18610;SDS011;9435;52.122;5.502;2022-12-15T15:02:18;64.57;;;31.75;;
18610;SDS011;9435;52.122;5.502;2022-12-15T15:04:55;66.30;;;32.45;;
18610;SDS011;9435;52.122;5.502;2022-12-15T15:07:27;65.10;;;31.83;;
18610;SDS011;9435;52.122;5.502;2022-12-15T15:09:56;68.40;;;32.30;;
18610;SDS011;9435;52.122;5.502;2022-12-15T15:12:25;62.17;;;32.10;;
18610;SDS011;9435;52.122;5.502;2022-12-15T15:15:06;65.43;;;33.05;;
18610;SDS011;9435;52.122;5.502;2022-12-15T15:17:42;63.83;;;32.22;;
18610;SDS011;9435;52.122;5.502;2022-12-15T15:20:16;64.80;;;32.92;;
18610;SDS011;9435;52.122;5.502;2022-12-15T15:22:50;64.45;;;33.58;;
18610;SDS011;9435;52.122;5.502;2022-12-15T15:25:33;64.20;;;31.52;;
18610;SDS011;9435;52.122;5.502;2022-12-15T15:28:10;68.25;;;32.78;;